sensor_id;sensor_type;location;lat;lon;timestamp;temperature;humidity
44767;DHT22;30487;48.716;9.272;2023-12-22T00:02:18;7.40;99.90
44767;DHT22;30487;48.716;9.272;2023-12-22T00:04:44;7.30;99.90
44767;DHT22;30487;48.716;9.272;2023-12-22T00:07:10;7.30;99.90
44767;DHT22;30487;48.716;9.272;2023-12-22T00:09:35;7.20;99.90
44767;DHT22;30487;48.716;9.272;2023-12-22T00:12:01;7.20;99.90
44767;DHT22;30487;48.716;9.272;2023-12-22T00:14:27;7.20;99.90
44767;DHT22;30487;48.716;9.272;2023-12-22T00:16:52;7.20;99.90
44767;DHT22;30487;48.716;9.272;2023-12-22T00:19:18;7.20;99.90
44767;DHT22;30487;48.716;9.272;2023-12-22T00:21:43;7.20;99.90
44767;DHT22;30487;48.716;9.272;2023-12-22T00:24:09;7.30;99.90
44767;DHT22;30487;48.716;9.272;2023-12-22T00:26:34;7.30;99.90
44767;DHT22;30487;48.716;9.272;2023-12-22T00:29:00;7.30;99.90
44767;DHT22;30487;48.716;9.272;2023-12-22T00:31:25;7.30;99.90
44767;DHT22;30487;48.716;9.272;2023-12-22T00:33:51;7.30;99.90
44767;DHT22;30487;48.716;9.272;2023-12-22T00:36:17;7.40;99.90
44767;DHT22;30487;48.716;9.272;2023-12-22T00:38:43;7.40;99.90
44767;DHT22;30487;48.716;9.272;2023-12-22T00:41:10;7.50;99.90
44767;DHT22;30487;48.716;9.272;2023-12-22T00:43:35;7.60;99.90
44767;DHT22;30487;48.716;9.272;2023-12-22T00:46:01;7.70;99.90
44767;DHT22;30487;48.716;9.272;2023-12-22T00:48:27;7.70;99.90
44767;DHT22;30487;48.716;9.272;2023-12-22T00:50:53;7.70;99.90
44767;DHT22;30487;48.716;9.272;2023-12-22T00:53:19;7.70;99.90
44767;DHT22;30487;48.716;9.272;2023-12-22T00:55:44;7.60;99.90
44767;DHT22;30487;48.716;9.272;2023-12-22T00:58:11;7.60;99.90
44767;DHT22;30487;48.716;9.272;2023-12-22T01:00:36;7.50;99.90
44767;DHT22;30487;48.716;9.272;2023-12-22T01:03:02;7.50;99.90
44767;DHT22;30487;48.716;9.272;2023-12-22T01:05:28;7.40;99.90
44767;DHT22;30487;48.716;9.272;2023-12-22T01:07:53;7.40;99.90
44767;DHT22;30487;48.716;9.272;2023-12-22T01:10:19;7.40;99.90
44767;DHT22;30487;48.716;9.272;2023-12-22T01:12:45;7.40;99.90
44767;DHT22;30487;48.716;9.272;2023-12-22T01:15:10;7.30;99.90
44767;DHT22;30487;48.716;9.272;2023-12-22T01:17:36;7.40;99.90
44767;DHT22;30487;48.716;9.272;2023-12-22T01:20:02;7.30;99.90
44767;DHT22;30487;48.716;9.272;2023-12-22T01:22:27;7.30;99.90
44767;DHT22;30487;48.716;9.272;2023-12-22T01:24:53;7.30;99.90
44767;DHT22;30487;48.716;9.272;2023-12-22T01:27:19;7.30;99.90
44767;DHT22;30487;48.716;9.272;2023-12-22T01:29:45;7.30;99.90
44767;DHT22;30487;48.716;9.272;2023-12-22T01:32:10;7.30;99.90
44767;DHT22;30487;48.716;9.272;2023-12-22T01:34:36;7.30;99.90
44767;DHT22;30487;48.716;9.272;2023-12-22T01:37:02;7.40;99.90
44767;DHT22;30487;48.716;9.272;2023-12-22T01:39:27;7.40;99.90
44767;DHT22;30487;48.716;9.272;2023-12-22T01:41:53;7.40;99.90
44767;DHT22;30487;48.716;9.272;2023-12-22T01:44:18;7.40;99.90
44767;DHT22;30487;48.716;9.272;2023-12-22T01:46:44;7.40;99.90
44767;DHT22;30487;48.716;9.272;2023-12-22T01:49:10;7.40;99.90
44767;DHT22;30487;48.716;9.272;2023-12-22T01:51:37;7.40;99.90
44767;DHT22;30487;48.716;9.272;2023-12-22T01:54:05;7.50;99.90
44767;DHT22;30487;48.716;9.272;2023-12-22T01:56:32;7.40;99.90
44767;DHT22;30487;48.716;9.272;2023-12-22T01:58:59;7.40;99.90
44767;DHT22;30487;48.716;9.272;2023-12-22T02:01:26;7.50;99.90
44767;DHT22;30487;48.716;9.272;2023-12-22T02:03:53;7.50;99.90
44767;DHT22;30487;48.716;9.272;2023-12-22T02:06:20;7.50;99.90
44767;DHT22;30487;48.716;9.272;2023-12-22T02:08:49;7.50;99.90
44767;DHT22;30487;48.716;9.272;2023-12-22T02:11:15;7.40;99.90
44767;DHT22;30487;48.716;9.272;2023-12-22T02:13:42;7.50;99.90
44767;DHT22;30487;48.716;9.272;2023-12-22T02:22:08;7.60;99.90
44767;DHT22;30487;48.716;9.272;2023-12-22T02:24:34;7.60;99.90
44767;DHT22;30487;48.716;9.272;2023-12-22T02:30:08;7.50;99.90
44767;DHT22;30487;48.716;9.272;2023-12-22T02:32:37;7.50;99.90
44767;DHT22;30487;48.716;9.272;2023-12-22T02:35:07;7.50;99.90
44767;DHT22;30487;48.716;9.272;2023-12-22T02:37:35;7.50;99.90
44767;DHT22;30487;48.716;9.272;2023-12-22T02:40:01;7.50;99.90
44767;DHT22;30487;48.716;9.272;2023-12-22T02:42:29;7.40;99.90
44767;DHT22;30487;48.716;9.272;2023-12-22T02:44:58;7.50;99.90
44767;DHT22;30487;48.716;9.272;2023-12-22T02:47:24;7.40;99.90
44767;DHT22;30487;48.716;9.272;2023-12-22T02:49:50;7.50;99.90
44767;DHT22;30487;48.716;9.272;2023-12-22T02:52:15;7.50;99.90
44767;DHT22;30487;48.716;9.272;2023-12-22T02:54:41;7.50;99.90
44767;DHT22;30487;48.716;9.272;2023-12-22T02:57:07;7.60;99.90
44767;DHT22;30487;48.716;9.272;2023-12-22T02:59:33;7.60;99.90
44767;DHT22;30487;48.716;9.272;2023-12-22T03:01:59;7.60;99.90
44767;DHT22;30487;48.716;9.272;2023-12-22T03:04:24;7.60;99.90
44767;DHT22;30487;48.716;9.272;2023-12-22T03:06:50;7.50;99.90
44767;DHT22;30487;48.716;9.272;2023-12-22T03:09:15;7.50;99.90
44767;DHT22;30487;48.716;9.272;2023-12-22T03:11:41;7.60;99.90
44767;DHT22;30487;48.716;9.272;2023-12-22T03:16:33;7.70;99.90
44767;DHT22;30487;48.716;9.272;2023-12-22T03:18:59;7.60;99.90
44767;DHT22;30487;48.716;9.272;2023-12-22T03:21:24;7.70;99.90
44767;DHT22;30487;48.716;9.272;2023-12-22T03:23:50;7.70;99.90
44767;DHT22;30487;48.716;9.272;2023-12-22T03:26:15;7.70;99.90
44767;DHT22;30487;48.716;9.272;2023-12-22T03:28:41;7.70;99.90
44767;DHT22;30487;48.716;9.272;2023-12-22T03:31:07;7.70;99.90
44767;DHT22;30487;48.716;9.272;2023-12-22T03:33:33;7.70;99.90
44767;DHT22;30487;48.716;9.272;2023-12-22T03:35:58;7.70;99.90
44767;DHT22;30487;48.716;9.272;2023-12-22T03:38:24;7.70;99.90
44767;DHT22;30487;48.716;9.272;2023-12-22T03:40:49;7.70;99.90
44767;DHT22;30487;48.716;9.272;2023-12-22T03:43:15;7.60;99.90
44767;DHT22;30487;48.716;9.272;2023-12-22T03:45:41;7.70;99.90
44767;DHT22;30487;48.716;9.272;2023-12-22T03:48:06;7.70;99.90
44767;DHT22;30487;48.716;9.272;2023-12-22T03:50:32;7.60;99.90
44767;DHT22;30487;48.716;9.272;2023-12-22T03:52:57;7.60;99.90
44767;DHT22;30487;48.716;9.272;2023-12-22T03:55:23;7.70;99.90
44767;DHT22;30487;48.716;9.272;2023-12-22T03:57:48;7.80;99.90
44767;DHT22;30487;48.716;9.272;2023-12-22T04:00:14;7.80;99.90
44767;DHT22;30487;48.716;9.272;2023-12-22T04:02:41;7.70;99.90
44767;DHT22;30487;48.716;9.272;2023-12-22T04:05:07;7.70;99.90
44767;DHT22;30487;48.716;9.272;2023-12-22T04:07:33;7.70;99.90
44767;DHT22;30487;48.716;9.272;2023-12-22T04:09:58;7.60;99.90
44767;DHT22;30487;48.716;9.272;2023-12-22T04:12:24;7.60;99.90
44767;DHT22;30487;48.716;9.272;2023-12-22T04:14:50;7.50;99.90
44767;DHT22;30487;48.716;9.272;2023-12-22T04:17:15;7.50;99.90
44767;DHT22;30487;48.716;9.272;2023-12-22T04:19:41;7.60;99.90
44767;DHT22;30487;48.716;9.272;2023-12-22T04:22:06;7.60;99.90
44767;DHT22;30487;48.716;9.272;2023-12-22T04:24:32;7.50;99.90
44767;DHT22;30487;48.716;9.272;2023-12-22T04:26:57;7.50;99.90
44767;DHT22;30487;48.716;9.272;2023-12-22T04:29:23;7.40;99.90
44767;DHT22;30487;48.716;9.272;2023-12-22T04:31:48;7.40;99.90
44767;DHT22;30487;48.716;9.272;2023-12-22T04:34:14;7.40;99.90
44767;DHT22;30487;48.716;9.272;2023-12-22T04:36:41;7.30;99.90
44767;DHT22;30487;48.716;9.272;2023-12-22T04:39:07;7.30;99.90
44767;DHT22;30487;48.716;9.272;2023-12-22T04:41:32;7.20;99.90
44767;DHT22;30487;48.716;9.272;2023-12-22T04:43:58;7.20;99.90
44767;DHT22;30487;48.716;9.272;2023-12-22T04:46:28;7.20;99.90
44767;DHT22;30487;48.716;9.272;2023-12-22T04:48:54;7.20;99.90
44767;DHT22;30487;48.716;9.272;2023-12-22T04:51:19;7.30;99.90
44767;DHT22;30487;48.716;9.272;2023-12-22T04:53:45;7.30;99.90
44767;DHT22;30487;48.716;9.272;2023-12-22T04:56:11;7.20;99.90
44767;DHT22;30487;48.716;9.272;2023-12-22T04:58:36;7.20;99.90
44767;DHT22;30487;48.716;9.272;2023-12-22T05:01:02;7.30;99.90
44767;DHT22;30487;48.716;9.272;2023-12-22T05:03:27;7.20;99.90
44767;DHT22;30487;48.716;9.272;2023-12-22T05:05:53;7.20;99.90
44767;DHT22;30487;48.716;9.272;2023-12-22T05:08:18;7.20;99.90
44767;DHT22;30487;48.716;9.272;2023-12-22T05:10:44;7.20;99.90
44767;DHT22;30487;48.716;9.272;2023-12-22T05:13:09;7.20;99.90
44767;DHT22;30487;48.716;9.272;2023-12-22T05:15:35;7.20;99.90
44767;DHT22;30487;48.716;9.272;2023-12-22T05:18:01;7.20;99.90
44767;DHT22;30487;48.716;9.272;2023-12-22T05:20:27;7.20;99.90
44767;DHT22;30487;48.716;9.272;2023-12-22T05:22:52;7.30;99.90
44767;DHT22;30487;48.716;9.272;2023-12-22T05:25:18;7.30;99.90
44767;DHT22;30487;48.716;9.272;2023-12-22T05:27:43;7.30;99.90
44767;DHT22;30487;48.716;9.272;2023-12-22T05:30:09;7.30;99.90
44767;DHT22;30487;48.716;9.272;2023-12-22T05:32:35;7.30;99.90
44767;DHT22;30487;48.716;9.272;2023-12-22T05:35:01;7.40;99.90
44767;DHT22;30487;48.716;9.272;2023-12-22T05:37:26;7.30;99.90
44767;DHT22;30487;48.716;9.272;2023-12-22T05:39:52;7.40;99.90
44767;DHT22;30487;48.716;9.272;2023-12-22T05:42:17;7.40;99.90
44767;DHT22;30487;48.716;9.272;2023-12-22T05:44:43;7.40;99.90
44767;DHT22;30487;48.716;9.272;2023-12-22T05:47:09;7.40;99.90
44767;DHT22;30487;48.716;9.272;2023-12-22T05:49:36;7.40;99.90
44767;DHT22;30487;48.716;9.272;2023-12-22T05:52:01;7.30;99.90
44767;DHT22;30487;48.716;9.272;2023-12-22T05:54:27;7.30;99.90
44767;DHT22;30487;48.716;9.272;2023-12-22T05:56:52;7.40;99.90
44767;DHT22;30487;48.716;9.272;2023-12-22T05:59:18;7.40;99.90
44767;DHT22;30487;48.716;9.272;2023-12-22T06:01:43;7.30;99.90
44767;DHT22;30487;48.716;9.272;2023-12-22T06:04:10;7.30;99.90
44767;DHT22;30487;48.716;9.272;2023-12-22T06:06:36;7.40;99.90
44767;DHT22;30487;48.716;9.272;2023-12-22T06:09:04;7.40;99.90
44767;DHT22;30487;48.716;9.272;2023-12-22T06:11:29;7.50;99.90
44767;DHT22;30487;48.716;9.272;2023-12-22T06:13:55;7.50;99.90
44767;DHT22;30487;48.716;9.272;2023-12-22T06:16:21;7.50;99.90
44767;DHT22;30487;48.716;9.272;2023-12-22T06:18:47;7.50;99.90
44767;DHT22;30487;48.716;9.272;2023-12-22T06:21:12;7.50;99.90
44767;DHT22;30487;48.716;9.272;2023-12-22T06:23:39;7.50;99.90
44767;DHT22;30487;48.716;9.272;2023-12-22T06:26:09;7.60;99.90
44767;DHT22;30487;48.716;9.272;2023-12-22T06:28:35;7.60;99.90
44767;DHT22;30487;48.716;9.272;2023-12-22T06:31:01;7.60;99.90
44767;DHT22;30487;48.716;9.272;2023-12-22T06:33:27;7.70;99.90
44767;DHT22;30487;48.716;9.272;2023-12-22T06:35:52;7.60;99.90
44767;DHT22;30487;48.716;9.272;2023-12-22T06:38:19;7.70;99.90
44767;DHT22;30487;48.716;9.272;2023-12-22T06:40:45;7.60;99.90
44767;DHT22;30487;48.716;9.272;2023-12-22T06:43:12;7.60;99.90
44767;DHT22;30487;48.716;9.272;2023-12-22T06:45:38;7.60;99.90
44767;DHT22;30487;48.716;9.272;2023-12-22T06:48:06;7.60;99.90
44767;DHT22;30487;48.716;9.272;2023-12-22T06:50:31;7.60;99.90
44767;DHT22;30487;48.716;9.272;2023-12-22T06:52:57;7.70;99.90
44767;DHT22;30487;48.716;9.272;2023-12-22T06:55:23;7.70;99.90
44767;DHT22;30487;48.716;9.272;2023-12-22T06:57:49;7.70;99.90
44767;DHT22;30487;48.716;9.272;2023-12-22T07:00:15;7.70;99.90
44767;DHT22;30487;48.716;9.272;2023-12-22T07:02:41;7.70;99.90
44767;DHT22;30487;48.716;9.272;2023-12-22T07:07:35;7.70;99.90
44767;DHT22;30487;48.716;9.272;2023-12-22T07:10:01;7.80;99.90
44767;DHT22;30487;48.716;9.272;2023-12-22T07:12:27;7.70;99.90
44767;DHT22;30487;48.716;9.272;2023-12-22T07:14:53;7.80;99.90
44767;DHT22;30487;48.716;9.272;2023-12-22T07:17:19;7.80;99.90
44767;DHT22;30487;48.716;9.272;2023-12-22T07:19:45;7.70;99.90
44767;DHT22;30487;48.716;9.272;2023-12-22T07:22:10;7.70;99.90
44767;DHT22;30487;48.716;9.272;2023-12-22T07:24:36;7.60;99.90
44767;DHT22;30487;48.716;9.272;2023-12-22T07:27:01;7.70;99.90
44767;DHT22;30487;48.716;9.272;2023-12-22T07:29:27;7.60;99.90
44767;DHT22;30487;48.716;9.272;2023-12-22T07:31:53;7.60;99.90
44767;DHT22;30487;48.716;9.272;2023-12-22T07:34:18;7.60;99.90
44767;DHT22;30487;48.716;9.272;2023-12-22T07:36:44;7.60;99.90
44767;DHT22;30487;48.716;9.272;2023-12-22T07:39:09;7.60;99.90
44767;DHT22;30487;48.716;9.272;2023-12-22T07:41:36;7.50;99.90
44767;DHT22;30487;48.716;9.272;2023-12-22T07:44:02;7.50;99.90
44767;DHT22;30487;48.716;9.272;2023-12-22T07:46:27;7.50;99.90
44767;DHT22;30487;48.716;9.272;2023-12-22T07:48:56;7.50;99.90
44767;DHT22;30487;48.716;9.272;2023-12-22T07:51:21;7.50;99.90
44767;DHT22;30487;48.716;9.272;2023-12-22T07:53:47;7.50;99.90
44767;DHT22;30487;48.716;9.272;2023-12-22T07:56:12;7.50;99.90
44767;DHT22;30487;48.716;9.272;2023-12-22T07:58:38;7.50;99.90
44767;DHT22;30487;48.716;9.272;2023-12-22T08:01:04;7.50;99.90
44767;DHT22;30487;48.716;9.272;2023-12-22T08:03:31;7.50;99.90
44767;DHT22;30487;48.716;9.272;2023-12-22T08:05:57;7.40;99.90
44767;DHT22;30487;48.716;9.272;2023-12-22T08:08:22;7.40;99.90
44767;DHT22;30487;48.716;9.272;2023-12-22T08:10:48;7.40;99.90
44767;DHT22;30487;48.716;9.272;2023-12-22T08:13:14;7.40;99.90
44767;DHT22;30487;48.716;9.272;2023-12-22T08:15:39;7.30;99.90
44767;DHT22;30487;48.716;9.272;2023-12-22T08:18:05;7.30;99.90
44767;DHT22;30487;48.716;9.272;2023-12-22T08:20:30;7.20;99.90
44767;DHT22;30487;48.716;9.272;2023-12-22T08:22:56;7.20;99.90
44767;DHT22;30487;48.716;9.272;2023-12-22T08:25:21;7.10;99.90
44767;DHT22;30487;48.716;9.272;2023-12-22T08:27:47;7.10;99.90
44767;DHT22;30487;48.716;9.272;2023-12-22T08:30:13;7.00;99.90
44767;DHT22;30487;48.716;9.272;2023-12-22T08:32:39;7.10;99.90
44767;DHT22;30487;48.716;9.272;2023-12-22T08:35:06;7.10;99.90
44767;DHT22;30487;48.716;9.272;2023-12-22T08:37:32;7.10;99.90
44767;DHT22;30487;48.716;9.272;2023-12-22T08:39:57;7.10;99.90
44767;DHT22;30487;48.716;9.272;2023-12-22T08:42:25;7.20;99.90
44767;DHT22;30487;48.716;9.272;2023-12-22T08:44:51;7.20;99.90
44767;DHT22;30487;48.716;9.272;2023-12-22T08:47:16;7.20;99.90
44767;DHT22;30487;48.716;9.272;2023-12-22T08:49:42;7.20;99.90
44767;DHT22;30487;48.716;9.272;2023-12-22T08:52:08;7.30;99.90
44767;DHT22;30487;48.716;9.272;2023-12-22T08:54:33;7.40;99.90
44767;DHT22;30487;48.716;9.272;2023-12-22T08:57:03;7.40;99.90
44767;DHT22;30487;48.716;9.272;2023-12-22T08:59:28;7.40;99.90
44767;DHT22;30487;48.716;9.272;2023-12-22T09:01:54;7.40;99.90
44767;DHT22;30487;48.716;9.272;2023-12-22T09:04:20;7.40;99.90
44767;DHT22;30487;48.716;9.272;2023-12-22T09:06:51;7.40;99.90
44767;DHT22;30487;48.716;9.272;2023-12-22T09:09:17;7.40;99.90
44767;DHT22;30487;48.716;9.272;2023-12-22T09:11:42;7.50;99.90
44767;DHT22;30487;48.716;9.272;2023-12-22T09:14:08;7.50;99.90
44767;DHT22;30487;48.716;9.272;2023-12-22T09:16:35;7.50;99.90
44767;DHT22;30487;48.716;9.272;2023-12-22T09:19:01;7.50;99.90
44767;DHT22;30487;48.716;9.272;2023-12-22T09:21:27;7.50;99.90
44767;DHT22;30487;48.716;9.272;2023-12-22T09:23:52;7.50;99.90
44767;DHT22;30487;48.716;9.272;2023-12-22T09:26:18;7.50;99.90
44767;DHT22;30487;48.716;9.272;2023-12-22T09:28:44;7.40;99.90
44767;DHT22;30487;48.716;9.272;2023-12-22T09:31:10;7.40;99.90
44767;DHT22;30487;48.716;9.272;2023-12-22T09:33:36;7.50;99.90
44767;DHT22;30487;48.716;9.272;2023-12-22T09:36:02;7.50;99.90
44767;DHT22;30487;48.716;9.272;2023-12-22T09:38:28;7.50;99.90
44767;DHT22;30487;48.716;9.272;2023-12-22T09:40:55;7.50;99.90
44767;DHT22;30487;48.716;9.272;2023-12-22T09:43:21;7.50;99.90
44767;DHT22;30487;48.716;9.272;2023-12-22T09:45:48;7.50;99.90
44767;DHT22;30487;48.716;9.272;2023-12-22T09:48:15;7.60;99.90
44767;DHT22;30487;48.716;9.272;2023-12-22T09:50:43;7.60;99.90
44767;DHT22;30487;48.716;9.272;2023-12-22T09:53:11;7.60;99.90
44767;DHT22;30487;48.716;9.272;2023-12-22T09:55:38;7.70;99.90
44767;DHT22;30487;48.716;9.272;2023-12-22T09:58:04;7.70;99.90
44767;DHT22;30487;48.716;9.272;2023-12-22T10:00:31;7.70;99.90
44767;DHT22;30487;48.716;9.272;2023-12-22T10:02:57;7.70;99.90
44767;DHT22;30487;48.716;9.272;2023-12-22T10:05:23;7.70;99.90
44767;DHT22;30487;48.716;9.272;2023-12-22T10:07:49;7.70;99.90
44767;DHT22;30487;48.716;9.272;2023-12-22T10:10:15;7.80;99.90
44767;DHT22;30487;48.716;9.272;2023-12-22T10:12:44;7.80;99.90
44767;DHT22;30487;48.716;9.272;2023-12-22T10:15:12;7.80;99.90
44767;DHT22;30487;48.716;9.272;2023-12-22T10:17:39;7.80;99.90
44767;DHT22;30487;48.716;9.272;2023-12-22T10:20:05;7.80;99.90
44767;DHT22;30487;48.716;9.272;2023-12-22T10:22:31;7.80;99.90
44767;DHT22;30487;48.716;9.272;2023-12-22T10:24:57;7.80;99.90
44767;DHT22;30487;48.716;9.272;2023-12-22T10:27:22;7.80;99.90
44767;DHT22;30487;48.716;9.272;2023-12-22T10:29:56;7.90;99.90
44767;DHT22;30487;48.716;9.272;2023-12-22T10:32:22;7.90;99.90
44767;DHT22;30487;48.716;9.272;2023-12-22T10:34:48;7.90;99.90
44767;DHT22;30487;48.716;9.272;2023-12-22T10:37:14;8.00;99.90
44767;DHT22;30487;48.716;9.272;2023-12-22T10:39:40;8.00;99.90
44767;DHT22;30487;48.716;9.272;2023-12-22T10:42:06;8.00;99.90
44767;DHT22;30487;48.716;9.272;2023-12-22T10:44:32;8.00;99.90
44767;DHT22;30487;48.716;9.272;2023-12-22T10:46:58;8.00;99.90
44767;DHT22;30487;48.716;9.272;2023-12-22T10:49:25;8.10;99.90
44767;DHT22;30487;48.716;9.272;2023-12-22T10:51:51;8.10;99.90
44767;DHT22;30487;48.716;9.272;2023-12-22T10:54:18;8.10;99.90
44767;DHT22;30487;48.716;9.272;2023-12-22T10:56:44;8.10;99.90
44767;DHT22;30487;48.716;9.272;2023-12-22T10:59:09;8.10;99.90
44767;DHT22;30487;48.716;9.272;2023-12-22T11:01:36;8.20;99.90
44767;DHT22;30487;48.716;9.272;2023-12-22T11:04:14;8.20;99.90
44767;DHT22;30487;48.716;9.272;2023-12-22T11:06:44;8.20;99.90
44767;DHT22;30487;48.716;9.272;2023-12-22T11:09:10;8.20;99.90
44767;DHT22;30487;48.716;9.272;2023-12-22T11:11:38;8.20;99.90
44767;DHT22;30487;48.716;9.272;2023-12-22T11:14:05;8.20;99.90
44767;DHT22;30487;48.716;9.272;2023-12-22T11:16:33;8.20;99.90
44767;DHT22;30487;48.716;9.272;2023-12-22T11:18:59;8.20;99.90
44767;DHT22;30487;48.716;9.272;2023-12-22T11:21:25;8.20;99.90
44767;DHT22;30487;48.716;9.272;2023-12-22T11:23:52;8.20;99.90
44767;DHT22;30487;48.716;9.272;2023-12-22T11:26:19;8.20;99.90
44767;DHT22;30487;48.716;9.272;2023-12-22T11:28:46;8.10;99.90
44767;DHT22;30487;48.716;9.272;2023-12-22T11:31:13;8.10;99.90
44767;DHT22;30487;48.716;9.272;2023-12-22T11:33:49;8.10;99.90
44767;DHT22;30487;48.716;9.272;2023-12-22T11:36:16;8.00;99.90
44767;DHT22;30487;48.716;9.272;2023-12-22T11:38:44;7.90;99.90
44767;DHT22;30487;48.716;9.272;2023-12-22T11:41:25;8.00;99.90
44767;DHT22;30487;48.716;9.272;2023-12-22T11:43:51;7.90;99.90
44767;DHT22;30487;48.716;9.272;2023-12-22T11:46:18;7.90;99.90
44767;DHT22;30487;48.716;9.272;2023-12-22T11:48:51;7.90;99.90
44767;DHT22;30487;48.716;9.272;2023-12-22T11:51:18;7.80;99.90
44767;DHT22;30487;48.716;9.272;2023-12-22T11:53:44;7.80;99.90
44767;DHT22;30487;48.716;9.272;2023-12-22T11:56:11;7.70;99.90
44767;DHT22;30487;48.716;9.272;2023-12-22T11:58:46;7.70;99.90
44767;DHT22;30487;48.716;9.272;2023-12-22T12:01:24;7.60;99.90
44767;DHT22;30487;48.716;9.272;2023-12-22T12:03:52;7.60;99.90
44767;DHT22;30487;48.716;9.272;2023-12-22T12:09:04;7.60;99.90
44767;DHT22;30487;48.716;9.272;2023-12-22T12:14:23;7.60;99.90
44767;DHT22;30487;48.716;9.272;2023-12-22T12:17:00;7.60;99.90
44767;DHT22;30487;48.716;9.272;2023-12-22T12:19:28;7.60;99.90
44767;DHT22;30487;48.716;9.272;2023-12-22T12:21:54;7.60;99.90
44767;DHT22;30487;48.716;9.272;2023-12-22T12:24:20;7.60;99.90
44767;DHT22;30487;48.716;9.272;2023-12-22T12:26:46;7.60;99.90
44767;DHT22;30487;48.716;9.272;2023-12-22T12:29:11;7.60;99.90
44767;DHT22;30487;48.716;9.272;2023-12-22T12:31:37;7.60;99.90
44767;DHT22;30487;48.716;9.272;2023-12-22T12:34:04;7.60;99.90
44767;DHT22;30487;48.716;9.272;2023-12-22T12:36:30;7.60;99.90
44767;DHT22;30487;48.716;9.272;2023-12-22T12:39:15;7.60;99.90
44767;DHT22;30487;48.716;9.272;2023-12-22T12:41:41;7.60;99.90
44767;DHT22;30487;48.716;9.272;2023-12-22T12:44:09;7.60;99.90
44767;DHT22;30487;48.716;9.272;2023-12-22T12:46:39;7.60;99.90
44767;DHT22;30487;48.716;9.272;2023-12-22T12:49:09;7.60;99.90
44767;DHT22;30487;48.716;9.272;2023-12-22T12:51:41;7.60;99.90
44767;DHT22;30487;48.716;9.272;2023-12-22T12:54:08;7.60;99.90
44767;DHT22;30487;48.716;9.272;2023-12-22T12:56:41;7.60;99.90
44767;DHT22;30487;48.716;9.272;2023-12-22T12:59:08;7.50;99.90
44767;DHT22;30487;48.716;9.272;2023-12-22T13:01:44;7.50;99.90
44767;DHT22;30487;48.716;9.272;2023-12-22T13:04:11;7.60;99.90
44767;DHT22;30487;48.716;9.272;2023-12-22T13:06:50;7.60;99.90
44767;DHT22;30487;48.716;9.272;2023-12-22T13:09:17;7.60;99.90
44767;DHT22;30487;48.716;9.272;2023-12-22T13:11:45;7.60;99.90
44767;DHT22;30487;48.716;9.272;2023-12-22T13:14:23;7.60;99.90
44767;DHT22;30487;48.716;9.272;2023-12-22T13:16:54;7.50;99.90
44767;DHT22;30487;48.716;9.272;2023-12-22T13:19:25;7.60;99.90
44767;DHT22;30487;48.716;9.272;2023-12-22T13:21:52;7.60;99.90
44767;DHT22;30487;48.716;9.272;2023-12-22T13:24:18;7.60;99.90
44767;DHT22;30487;48.716;9.272;2023-12-22T13:26:45;7.60;99.90
44767;DHT22;30487;48.716;9.272;2023-12-22T13:29:12;7.60;99.90
44767;DHT22;30487;48.716;9.272;2023-12-22T13:31:39;7.70;99.90
44767;DHT22;30487;48.716;9.272;2023-12-22T13:34:13;7.70;99.90
44767;DHT22;30487;48.716;9.272;2023-12-22T13:36:39;7.80;99.90
44767;DHT22;30487;48.716;9.272;2023-12-22T13:39:06;7.80;99.90
44767;DHT22;30487;48.716;9.272;2023-12-22T13:41:33;7.70;99.90
44767;DHT22;30487;48.716;9.272;2023-12-22T13:44:03;7.80;99.90
44767;DHT22;30487;48.716;9.272;2023-12-22T13:46:29;7.90;99.90
44767;DHT22;30487;48.716;9.272;2023-12-22T13:48:55;7.90;99.90
44767;DHT22;30487;48.716;9.272;2023-12-22T13:51:21;7.90;99.90
44767;DHT22;30487;48.716;9.272;2023-12-22T13:53:47;7.90;99.90
44767;DHT22;30487;48.716;9.272;2023-12-22T13:56:14;7.90;99.90
44767;DHT22;30487;48.716;9.272;2023-12-22T13:58:46;8.00;99.90
44767;DHT22;30487;48.716;9.272;2023-12-22T14:01:16;7.90;99.90
44767;DHT22;30487;48.716;9.272;2023-12-22T14:03:42;8.00;99.90
44767;DHT22;30487;48.716;9.272;2023-12-22T14:06:08;8.00;99.90
44767;DHT22;30487;48.716;9.272;2023-12-22T14:08:41;8.00;99.90
44767;DHT22;30487;48.716;9.272;2023-12-22T14:11:09;8.10;99.90
44767;DHT22;30487;48.716;9.272;2023-12-22T14:13:35;8.10;99.90
44767;DHT22;30487;48.716;9.272;2023-12-22T14:16:05;8.10;99.90
44767;DHT22;30487;48.716;9.272;2023-12-22T14:18:31;8.10;99.90
44767;DHT22;30487;48.716;9.272;2023-12-22T14:20:56;8.20;99.90
44767;DHT22;30487;48.716;9.272;2023-12-22T14:23:22;8.30;99.90
44767;DHT22;30487;48.716;9.272;2023-12-22T14:25:48;8.30;99.90
44767;DHT22;30487;48.716;9.272;2023-12-22T14:28:13;8.30;99.90
44767;DHT22;30487;48.716;9.272;2023-12-22T14:30:39;8.30;99.90
44767;DHT22;30487;48.716;9.272;2023-12-22T14:33:05;8.50;99.90
44767;DHT22;30487;48.716;9.272;2023-12-22T14:35:30;8.40;99.90
44767;DHT22;30487;48.716;9.272;2023-12-22T14:37:56;8.50;99.90
44767;DHT22;30487;48.716;9.272;2023-12-22T14:40:22;8.60;99.90
44767;DHT22;30487;48.716;9.272;2023-12-22T14:42:47;8.50;99.90
44767;DHT22;30487;48.716;9.272;2023-12-22T14:45:13;8.60;99.90
44767;DHT22;30487;48.716;9.272;2023-12-22T14:47:38;8.60;99.90
44767;DHT22;30487;48.716;9.272;2023-12-22T14:50:05;8.70;99.90
44767;DHT22;30487;48.716;9.272;2023-12-22T14:52:31;8.60;99.90
44767;DHT22;30487;48.716;9.272;2023-12-22T14:55:00;8.60;99.90
44767;DHT22;30487;48.716;9.272;2023-12-22T14:57:26;8.70;99.90
44767;DHT22;30487;48.716;9.272;2023-12-22T14:59:52;8.70;99.90
44767;DHT22;30487;48.716;9.272;2023-12-22T15:02:18;8.70;99.90
44767;DHT22;30487;48.716;9.272;2023-12-22T15:04:44;8.80;99.90
44767;DHT22;30487;48.716;9.272;2023-12-22T15:07:13;8.80;99.90
44767;DHT22;30487;48.716;9.272;2023-12-22T15:09:39;8.90;99.90
44767;DHT22;30487;48.716;9.272;2023-12-22T15:12:05;8.90;99.90
44767;DHT22;30487;48.716;9.272;2023-12-22T15:14:31;8.90;99.90
44767;DHT22;30487;48.716;9.272;2023-12-22T15:16:56;8.90;99.90
44767;DHT22;30487;48.716;9.272;2023-12-22T15:19:22;8.90;99.90
44767;DHT22;30487;48.716;9.272;2023-12-22T15:21:47;8.90;99.90
44767;DHT22;30487;48.716;9.272;2023-12-22T15:24:13;8.90;99.90
44767;DHT22;30487;48.716;9.272;2023-12-22T15:26:39;8.90;99.90
44767;DHT22;30487;48.716;9.272;2023-12-22T15:29:04;8.90;99.90
44767;DHT22;30487;48.716;9.272;2023-12-22T15:31:30;8.90;99.90
44767;DHT22;30487;48.716;9.272;2023-12-22T15:33:57;8.80;99.90
44767;DHT22;30487;48.716;9.272;2023-12-22T15:36:23;8.90;99.90
44767;DHT22;30487;48.716;9.272;2023-12-22T15:38:49;8.90;99.90
44767;DHT22;30487;48.716;9.272;2023-12-22T15:41:15;8.90;99.90
44767;DHT22;30487;48.716;9.272;2023-12-22T15:43:41;8.90;99.90
44767;DHT22;30487;48.716;9.272;2023-12-22T15:46:07;8.90;99.90
44767;DHT22;30487;48.716;9.272;2023-12-22T15:48:33;8.90;99.90
44767;DHT22;30487;48.716;9.272;2023-12-22T15:51:05;8.90;99.90
44767;DHT22;30487;48.716;9.272;2023-12-22T15:53:31;9.00;99.90
44767;DHT22;30487;48.716;9.272;2023-12-22T15:55:56;9.00;99.90
44767;DHT22;30487;48.716;9.272;2023-12-22T15:58:22;9.00;99.90
44767;DHT22;30487;48.716;9.272;2023-12-22T16:00:48;9.10;99.90